sensor_id;sensor_type;location;lat;lon;timestamp;pressure;altitude;pressure_sealevel;temperature;humidity
59650;BME280;46162;57.568;25.814;2023-03-04T00:01:10;98671.44;;;-1.25;100.00
59650;BME280;46162;57.568;25.814;2023-03-04T00:03:39;98666.53;;;-1.30;100.00
59650;BME280;46162;57.568;25.814;2023-03-04T00:06:07;98656.41;;;-1.36;100.00
59650;BME280;46162;57.568;25.814;2023-03-04T00:08:36;98644.44;;;-1.40;100.00
59650;BME280;46162;57.568;25.814;2023-03-04T00:11:04;98642.97;;;-1.44;100.00
59650;BME280;46162;57.568;25.814;2023-03-04T00:13:34;98636.50;;;-1.52;100.00
59650;BME280;46162;57.568;25.814;2023-03-04T00:16:03;98626.66;;;-1.49;100.00
59650;BME280;46162;57.568;25.814;2023-03-04T00:18:32;98625.94;;;-1.52;100.00
59650;BME280;46162;57.568;25.814;2023-03-04T00:21:01;98634.69;;;-1.51;100.00
59650;BME280;46162;57.568;25.814;2023-03-04T00:23:29;98625.00;;;-1.62;100.00
59650;BME280;46162;57.568;25.814;2023-03-04T00:25:58;98629.19;;;-1.59;100.00
59650;BME280;46162;57.568;25.814;2023-03-04T00:28:26;98623.91;;;-1.59;100.00
59650;BME280;46162;57.568;25.814;2023-03-04T00:30:56;98612.94;;;-1.55;100.00
59650;BME280;46162;57.568;25.814;2023-03-04T00:33:25;98618.00;;;-1.52;100.00
59650;BME280;46162;57.568;25.814;2023-03-04T00:35:54;98612.84;;;-1.53;100.00
59650;BME280;46162;57.568;25.814;2023-03-04T00:38:22;98615.34;;;-1.52;100.00
59650;BME280;46162;57.568;25.814;2023-03-04T00:40:51;98607.13;;;-1.48;100.00
59650;BME280;46162;57.568;25.814;2023-03-04T00:43:21;98604.75;;;-1.52;100.00
59650;BME280;46162;57.568;25.814;2023-03-04T00:45:49;98601.66;;;-1.57;100.00
59650;BME280;46162;57.568;25.814;2023-03-04T00:48:19;98598.38;;;-1.49;100.00
59650;BME280;46162;57.568;25.814;2023-03-04T00:50:48;98595.34;;;-1.44;100.00
59650;BME280;46162;57.568;25.814;2023-03-04T00:53:19;98598.00;;;-1.44;100.00
59650;BME280;46162;57.568;25.814;2023-03-04T00:55:47;98605.66;;;-1.41;100.00
59650;BME280;46162;57.568;25.814;2023-03-04T00:58:16;98601.94;;;-1.39;100.00
59650;BME280;46162;57.568;25.814;2023-03-04T01:00:44;98603.38;;;-1.35;100.00
59650;BME280;46162;57.568;25.814;2023-03-04T01:03:13;98587.75;;;-1.38;100.00
59650;BME280;46162;57.568;25.814;2023-03-04T01:05:43;98584.63;;;-1.43;100.00
59650;BME280;46162;57.568;25.814;2023-03-04T01:08:11;98575.38;;;-1.48;100.00
59650;BME280;46162;57.568;25.814;2023-03-04T01:10:40;98579.00;;;-1.49;100.00
59650;BME280;46162;57.568;25.814;2023-03-04T01:13:08;98572.03;;;-1.50;100.00
59650;BME280;46162;57.568;25.814;2023-03-04T01:15:37;98568.69;;;-1.53;100.00
59650;BME280;46162;57.568;25.814;2023-03-04T01:18:06;98556.56;;;-1.55;100.00
59650;BME280;46162;57.568;25.814;2023-03-04T01:20:34;98553.19;;;-1.57;100.00
59650;BME280;46162;57.568;25.814;2023-03-04T01:23:04;98550.41;;;-1.56;100.00
59650;BME280;46162;57.568;25.814;2023-03-04T01:25:34;98546.78;;;-1.55;100.00
59650;BME280;46162;57.568;25.814;2023-03-04T01:28:04;98540.66;;;-1.55;100.00
59650;BME280;46162;57.568;25.814;2023-03-04T01:30:32;98537.31;;;-1.57;100.00
59650;BME280;46162;57.568;25.814;2023-03-04T01:33:01;98532.00;;;-1.57;100.00
59650;BME280;46162;57.568;25.814;2023-03-04T01:35:30;98536.47;;;-1.58;100.00
59650;BME280;46162;57.568;25.814;2023-03-04T01:37:58;98527.44;;;-1.55;100.00
59650;BME280;46162;57.568;25.814;2023-03-04T01:40:29;98520.59;;;-1.58;100.00
59650;BME280;46162;57.568;25.814;2023-03-04T01:42:58;98513.59;;;-1.59;100.00
59650;BME280;46162;57.568;25.814;2023-03-04T01:45:34;98503.16;;;-1.60;100.00
59650;BME280;46162;57.568;25.814;2023-03-04T01:48:08;98501.63;;;-1.63;100.00
59650;BME280;46162;57.568;25.814;2023-03-04T01:50:37;98501.63;;;-1.63;100.00
59650;BME280;46162;57.568;25.814;2023-03-04T01:53:06;98490.31;;;-1.65;100.00
59650;BME280;46162;57.568;25.814;2023-03-04T01:55:35;98487.94;;;-1.68;100.00
59650;BME280;46162;57.568;25.814;2023-03-04T01:58:04;98479.13;;;-1.68;100.00
59650;BME280;46162;57.568;25.814;2023-03-04T02:00:35;98475.94;;;-1.72;100.00
59650;BME280;46162;57.568;25.814;2023-03-04T02:03:06;98473.41;;;-1.74;100.00
59650;BME280;46162;57.568;25.814;2023-03-04T02:05:38;98468.38;;;-1.77;100.00
59650;BME280;46162;57.568;25.814;2023-03-04T02:08:08;98457.06;;;-1.79;100.00
59650;BME280;46162;57.568;25.814;2023-03-04T02:10:39;98450.25;;;-1.81;100.00
59650;BME280;46162;57.568;25.814;2023-03-04T02:13:10;98440.75;;;-1.84;100.00
59650;BME280;46162;57.568;25.814;2023-03-04T02:15:38;98438.25;;;-1.85;100.00
59650;BME280;46162;57.568;25.814;2023-03-04T02:18:14;98429.59;;;-1.87;100.00
59650;BME280;46162;57.568;25.814;2023-03-04T02:20:50;98417.47;;;-1.90;100.00
59650;BME280;46162;57.568;25.814;2023-03-04T02:23:25;98414.94;;;-1.91;100.00
59650;BME280;46162;57.568;25.814;2023-03-04T02:26:14;98403.41;;;-1.90;100.00
59650;BME280;46162;57.568;25.814;2023-03-04T02:28:47;98406.19;;;-1.92;100.00
59650;BME280;46162;57.568;25.814;2023-03-04T02:31:23;98397.53;;;-1.94;100.00
59650;BME280;46162;57.568;25.814;2023-03-04T02:33:55;98389.72;;;-1.96;100.00
59650;BME280;46162;57.568;25.814;2023-03-04T02:36:26;98378.47;;;-1.98;100.00
59650;BME280;46162;57.568;25.814;2023-03-04T02:39:01;98380.38;;;-2.00;100.00
59650;BME280;46162;57.568;25.814;2023-03-04T02:41:32;98377.03;;;-2.02;100.00
59650;BME280;46162;57.568;25.814;2023-03-04T02:44:01;98371.03;;;-2.04;100.00
59650;BME280;46162;57.568;25.814;2023-03-04T02:46:30;98373.66;;;-2.04;100.00
59650;BME280;46162;57.568;25.814;2023-03-04T02:48:58;98362.38;;;-2.06;100.00
59650;BME280;46162;57.568;25.814;2023-03-04T02:51:27;98371.28;;;-2.07;100.00
59650;BME280;46162;57.568;25.814;2023-03-04T02:53:56;98354.72;;;-2.09;100.00
59650;BME280;46162;57.568;25.814;2023-03-04T02:56:25;98344.25;;;-2.10;100.00
59650;BME280;46162;57.568;25.814;2023-03-04T02:58:55;98345.13;;;-2.10;100.00
59650;BME280;46162;57.568;25.814;2023-03-04T03:01:27;98337.31;;;-2.11;100.00
59650;BME280;46162;57.568;25.814;2023-03-04T03:03:56;98330.09;;;-2.09;100.00
59650;BME280;46162;57.568;25.814;2023-03-04T03:06:24;98326.63;;;-2.10;100.00
59650;BME280;46162;57.568;25.814;2023-03-04T03:08:53;98310.75;;;-2.10;100.00
59650;BME280;46162;57.568;25.814;2023-03-04T03:11:22;98307.84;;;-2.07;100.00
59650;BME280;46162;57.568;25.814;2023-03-04T03:13:53;98290.44;;;-2.09;100.00
59650;BME280;46162;57.568;25.814;2023-03-04T03:16:23;98294.88;;;-2.10;100.00
59650;BME280;46162;57.568;25.814;2023-03-04T03:18:52;98280.69;;;-2.09;100.00
59650;BME280;46162;57.568;25.814;2023-03-04T03:21:21;98279.97;;;-2.11;100.00
59650;BME280;46162;57.568;25.814;2023-03-04T03:23:49;98272.03;;;-2.11;100.00
59650;BME280;46162;57.568;25.814;2023-03-04T03:26:18;98267.75;;;-2.12;100.00
59650;BME280;46162;57.568;25.814;2023-03-04T03:28:47;98261.63;;;-2.12;100.00
59650;BME280;46162;57.568;25.814;2023-03-04T03:31:16;98266.63;;;-2.09;100.00
59650;BME280;46162;57.568;25.814;2023-03-04T03:33:47;98262.19;;;-2.09;100.00
59650;BME280;46162;57.568;25.814;2023-03-04T03:36:16;98253.28;;;-2.08;100.00
59650;BME280;46162;57.568;25.814;2023-03-04T03:38:44;98255.78;;;-2.06;100.00
59650;BME280;46162;57.568;25.814;2023-03-04T03:41:13;98262.63;;;-2.04;100.00
59650;BME280;46162;57.568;25.814;2023-03-04T03:43:41;98242.47;;;-2.05;100.00
59650;BME280;46162;57.568;25.814;2023-03-04T03:46:10;98238.81;;;-2.04;100.00
59650;BME280;46162;57.568;25.814;2023-03-04T03:48:38;98241.34;;;-2.02;100.00
59650;BME280;46162;57.568;25.814;2023-03-04T03:51:08;98238.72;;;-2.02;100.00
59650;BME280;46162;57.568;25.814;2023-03-04T03:53:37;98223.94;;;-2.05;100.00
59650;BME280;46162;57.568;25.814;2023-03-04T03:56:06;98242.69;;;-2.08;100.00
59650;BME280;46162;57.568;25.814;2023-03-04T03:58:34;98223.50;;;-2.10;100.00
59650;BME280;46162;57.568;25.814;2023-03-04T04:01:06;98228.09;;;-2.12;100.00
59650;BME280;46162;57.568;25.814;2023-03-04T04:03:35;98227.38;;;-2.14;100.00
59650;BME280;46162;57.568;25.814;2023-03-04T04:06:10;98215.13;;;-2.15;100.00
59650;BME280;46162;57.568;25.814;2023-03-04T04:08:46;98220.44;;;-2.15;100.00
59650;BME280;46162;57.568;25.814;2023-03-04T04:11:16;98208.16;;;-2.16;100.00
59650;BME280;46162;57.568;25.814;2023-03-04T04:13:45;98214.56;;;-2.19;100.00
59650;BME280;46162;57.568;25.814;2023-03-04T04:16:14;98203.41;;;-2.22;100.00
59650;BME280;46162;57.568;25.814;2023-03-04T04:18:48;98209.66;;;-2.23;100.00
59650;BME280;46162;57.568;25.814;2023-03-04T04:21:21;98198.25;;;-2.24;100.00
59650;BME280;46162;57.568;25.814;2023-03-04T04:23:50;98196.84;;;-2.28;100.00
59650;BME280;46162;57.568;25.814;2023-03-04T04:26:30;98194.19;;;-2.28;100.00
59650;BME280;46162;57.568;25.814;2023-03-04T04:29:05;98189.44;;;-2.34;100.00
59650;BME280;46162;57.568;25.814;2023-03-04T04:31:37;98189.56;;;-2.35;100.00
59650;BME280;46162;57.568;25.814;2023-03-04T04:34:12;98189.56;;;-2.35;100.00
59650;BME280;46162;57.568;25.814;2023-03-04T04:36:43;98187.19;;;-2.39;100.00
59650;BME280;46162;57.568;25.814;2023-03-04T04:39:14;98178.81;;;-2.44;100.00
59650;BME280;46162;57.568;25.814;2023-03-04T04:41:44;98178.81;;;-2.44;100.00
59650;BME280;46162;57.568;25.814;2023-03-04T04:44:19;98181.72;;;-2.47;100.00
59650;BME280;46162;57.568;25.814;2023-03-04T04:46:48;98180.91;;;-2.47;100.00
59650;BME280;46162;57.568;25.814;2023-03-04T04:49:18;98175.88;;;-2.50;100.00
59650;BME280;46162;57.568;25.814;2023-03-04T04:51:48;98174.31;;;-2.53;100.00
59650;BME280;46162;57.568;25.814;2023-03-04T04:54:25;98179.03;;;-2.56;100.00
59650;BME280;46162;57.568;25.814;2023-03-04T04:57:03;98187.78;;;-2.56;100.00
59650;BME280;46162;57.568;25.814;2023-03-04T04:59:48;98168.97;;;-2.63;100.00
59650;BME280;46162;57.568;25.814;2023-03-04T05:02:21;98174.69;;;-2.57;100.00
59650;BME280;46162;57.568;25.814;2023-03-04T05:04:56;98167.03;;;-2.61;100.00
59650;BME280;46162;57.568;25.814;2023-03-04T05:07:29;98173.16;;;-2.60;100.00
59650;BME280;46162;57.568;25.814;2023-03-04T05:10:01;98168.75;;;-2.60;100.00
59650;BME280;46162;57.568;25.814;2023-03-04T05:12:38;98170.41;;;-2.58;100.00
59650;BME280;46162;57.568;25.814;2023-03-04T05:15:09;98163.31;;;-2.58;100.00
59650;BME280;46162;57.568;25.814;2023-03-04T05:17:40;98162.75;;;-2.62;100.00
59650;BME280;46162;57.568;25.814;2023-03-04T05:20:19;98167.03;;;-2.61;100.00
59650;BME280;46162;57.568;25.814;2023-03-04T05:23:01;98151.34;;;-2.62;100.00
59650;BME280;46162;57.568;25.814;2023-03-04T05:25:54;98147.59;;;-2.60;100.00
59650;BME280;46162;57.568;25.814;2023-03-04T05:28:26;98152.03;;;-2.60;100.00
59650;BME280;46162;57.568;25.814;2023-03-04T05:30:55;98174.03;;;-2.60;100.00
59650;BME280;46162;57.568;25.814;2023-03-04T05:33:29;98150.50;;;-2.63;100.00
59650;BME280;46162;57.568;25.814;2023-03-04T05:36:01;98138.66;;;-2.68;100.00
59650;BME280;46162;57.568;25.814;2023-03-04T05:38:34;98148.25;;;-2.67;100.00
59650;BME280;46162;57.568;25.814;2023-03-04T05:41:06;98138.66;;;-2.68;100.00
59650;BME280;46162;57.568;25.814;2023-03-04T05:43:35;98154.63;;;-2.70;100.00
59650;BME280;46162;57.568;25.814;2023-03-04T05:46:12;98155.59;;;-2.71;100.00
59650;BME280;46162;57.568;25.814;2023-03-04T05:48:49;98159.22;;;-2.72;100.00
59650;BME280;46162;57.568;25.814;2023-03-04T05:51:21;98149.50;;;-2.71;100.00
59650;BME280;46162;57.568;25.814;2023-03-04T05:54:06;98149.88;;;-2.76;100.00
59650;BME280;46162;57.568;25.814;2023-03-04T05:56:38;98157.78;;;-2.76;100.00
59650;BME280;46162;57.568;25.814;2023-03-04T05:59:17;98156.97;;;-2.76;100.00
59650;BME280;46162;57.568;25.814;2023-03-04T06:01:50;98127.31;;;-2.80;100.00
59650;BME280;46162;57.568;25.814;2023-03-04T06:04:22;98154.72;;;-2.81;100.00
59650;BME280;46162;57.568;25.814;2023-03-04T06:06:53;98138.03;;;-2.82;100.00
59650;BME280;46162;57.568;25.814;2023-03-04T06:09:33;98145.09;;;-2.82;100.00
59650;BME280;46162;57.568;25.814;2023-03-04T06:12:13;98142.72;;;-2.85;100.00
59650;BME280;46162;57.568;25.814;2023-03-04T06:14:48;98134.69;;;-2.84;100.00
59650;BME280;46162;57.568;25.814;2023-03-04T06:17:18;98148.59;;;-2.82;100.00
59650;BME280;46162;57.568;25.814;2023-03-04T06:19:57;98143.00;;;-2.88;100.00
59650;BME280;46162;57.568;25.814;2023-03-04T06:22:30;98150.63;;;-2.85;100.00
59650;BME280;46162;57.568;25.814;2023-03-04T06:25:08;98148.72;;;-2.83;100.00
59650;BME280;46162;57.568;25.814;2023-03-04T06:27:43;98150.25;;;-2.81;100.00
59650;BME280;46162;57.568;25.814;2023-03-04T06:30:18;98151.09;;;-2.80;100.00
59650;BME280;46162;57.568;25.814;2023-03-04T06:32:48;98151.09;;;-2.80;100.00
59650;BME280;46162;57.568;25.814;2023-03-04T06:35:17;98158.06;;;-2.79;100.00
59650;BME280;46162;57.568;25.814;2023-03-04T06:37:59;98139.97;;;-2.84;100.00
59650;BME280;46162;57.568;25.814;2023-03-04T06:40:38;98149.28;;;-2.79;100.00
59650;BME280;46162;57.568;25.814;2023-03-04T06:43:12;98130.63;;;-2.88;100.00
59650;BME280;46162;57.568;25.814;2023-03-04T06:45:46;98153.72;;;-2.80;100.00
59650;BME280;46162;57.568;25.814;2023-03-04T06:48:19;98145.97;;;-2.82;100.00
59650;BME280;46162;57.568;25.814;2023-03-04T06:50:56;98155.53;;;-2.81;100.00
59650;BME280;46162;57.568;25.814;2023-03-04T06:53:25;98127.97;;;-2.88;100.00
59650;BME280;46162;57.568;25.814;2023-03-04T06:56:01;98146.06;;;-2.83;100.00
59650;BME280;46162;57.568;25.814;2023-03-04T06:58:31;98149.44;;;-2.81;100.00
59650;BME280;46162;57.568;25.814;2023-03-04T07:01:14;98144.97;;;-2.81;100.00
59650;BME280;46162;57.568;25.814;2023-03-04T07:03:45;98141.34;;;-2.79;100.00
59650;BME280;46162;57.568;25.814;2023-03-04T07:06:16;98145.97;;;-2.82;100.00
59650;BME280;46162;57.568;25.814;2023-03-04T07:08:47;98139.97;;;-2.84;100.00
59650;BME280;46162;57.568;25.814;2023-03-04T07:11:18;98140.91;;;-2.85;100.00
59650;BME280;46162;57.568;25.814;2023-03-04T07:13:49;98141.63;;;-2.83;100.00
59650;BME280;46162;57.568;25.814;2023-03-04T07:16:22;98140.91;;;-2.85;100.00
59650;BME280;46162;57.568;25.814;2023-03-04T07:18:55;98148.81;;;-2.85;100.00
59650;BME280;46162;57.568;25.814;2023-03-04T07:21:24;98148.00;;;-2.85;100.00
59650;BME280;46162;57.568;25.814;2023-03-04T07:23:56;98144.66;;;-2.87;100.00
59650;BME280;46162;57.568;25.814;2023-03-04T07:26:27;98150.53;;;-2.84;100.00
59650;BME280;46162;57.568;25.814;2023-03-04T07:28:56;98150.53;;;-2.84;100.00
59650;BME280;46162;57.568;25.814;2023-03-04T07:31:28;98151.47;;;-2.85;100.00
59650;BME280;46162;57.568;25.814;2023-03-04T07:34:00;98148.16;;;-2.87;100.00
59650;BME280;46162;57.568;25.814;2023-03-04T07:36:31;98155.22;;;-2.87;100.00
59650;BME280;46162;57.568;25.814;2023-03-04T07:39:01;98148.38;;;-2.90;100.00
59650;BME280;46162;57.568;25.814;2023-03-04T07:41:32;98151.03;;;-2.90;100.00
59650;BME280;46162;57.568;25.814;2023-03-04T07:44:06;98144.53;;;-2.86;100.00
59650;BME280;46162;57.568;25.814;2023-03-04T07:46:39;98142.72;;;-2.85;100.00
59650;BME280;46162;57.568;25.814;2023-03-04T07:49:11;98144.53;;;-2.86;100.00
59650;BME280;46162;57.568;25.814;2023-03-04T07:51:40;98141.88;;;-2.86;100.00
59650;BME280;46162;57.568;25.814;2023-03-04T07:54:09;98143.03;;;-2.78;100.00
59650;BME280;46162;57.568;25.814;2023-03-04T07:56:46;98151.25;;;-2.82;100.00
59650;BME280;46162;57.568;25.814;2023-03-04T07:59:16;98136.34;;;-2.83;100.00
59650;BME280;46162;57.568;25.814;2023-03-04T08:01:45;98131.88;;;-2.82;100.00
59650;BME280;46162;57.568;25.814;2023-03-04T08:04:18;98135.38;;;-2.82;100.00
59650;BME280;46162;57.568;25.814;2023-03-04T08:06:53;98141.94;;;-2.76;100.00
59650;BME280;46162;57.568;25.814;2023-03-04T08:09:27;98120.00;;;-2.76;100.00
59650;BME280;46162;57.568;25.814;2023-03-04T08:12:05;98133.25;;;-2.67;100.00
59650;BME280;46162;57.568;25.814;2023-03-04T08:14:40;98125.84;;;-2.73;100.00
59650;BME280;46162;57.568;25.814;2023-03-04T08:17:09;98127.56;;;-2.62;100.00
59650;BME280;46162;57.568;25.814;2023-03-04T08:19:41;98133.50;;;-2.70;100.00
59650;BME280;46162;57.568;25.814;2023-03-04T08:22:13;98115.44;;;-2.65;100.00
59650;BME280;46162;57.568;25.814;2023-03-04T08:24:42;98114.75;;;-2.67;100.00
59650;BME280;46162;57.568;25.814;2023-03-04T08:27:15;98126.16;;;-2.66;100.00
59650;BME280;46162;57.568;25.814;2023-03-04T08:29:48;98114.75;;;-2.67;100.00
59650;BME280;46162;57.568;25.814;2023-03-04T08:32:23;98117.78;;;-2.71;100.00
59650;BME280;46162;57.568;25.814;2023-03-04T08:34:56;98121.25;;;-2.71;100.00
59650;BME280;46162;57.568;25.814;2023-03-04T08:37:25;98130.59;;;-2.67;100.00
59650;BME280;46162;57.568;25.814;2023-03-04T08:39:54;98125.88;;;-2.63;100.00
59650;BME280;46162;57.568;25.814;2023-03-04T08:42:32;98119.91;;;-2.65;100.00
59650;BME280;46162;57.568;25.814;2023-03-04T08:45:01;98115.59;;;-2.66;100.00
59650;BME280;46162;57.568;25.814;2023-03-04T08:47:31;98127.97;;;-2.67;100.00
59650;BME280;46162;57.568;25.814;2023-03-04T08:50:04;98141.16;;;-2.67;100.00
59650;BME280;46162;57.568;25.814;2023-03-04T08:52:36;98120.28;;;-2.70;100.00
59650;BME280;46162;57.568;25.814;2023-03-04T08:55:07;98127.91;;;-2.76;100.00
59650;BME280;46162;57.568;25.814;2023-03-04T08:57:37;98122.38;;;-2.73;100.00
59650;BME280;46162;57.568;25.814;2023-03-04T09:00:10;98126.66;;;-2.72;100.00
59650;BME280;46162;57.568;25.814;2023-03-04T09:02:39;98117.09;;;-2.73;100.00
59650;BME280;46162;57.568;25.814;2023-03-04T09:05:08;98133.38;;;-2.68;100.00
59650;BME280;46162;57.568;25.814;2023-03-04T09:07:37;98113.34;;;-2.71;100.00
59650;BME280;46162;57.568;25.814;2023-03-04T09:10:16;98127.81;;;-2.65;100.00
59650;BME280;46162;57.568;25.814;2023-03-04T09:12:50;98121.44;;;-2.63;100.00
59650;BME280;46162;57.568;25.814;2023-03-04T09:15:20;98117.25;;;-2.65;100.00
59650;BME280;46162;57.568;25.814;2023-03-04T09:17:49;98115.97;;;-2.71;100.00
59650;BME280;46162;57.568;25.814;2023-03-04T09:20:22;98126.16;;;-2.66;100.00
59650;BME280;46162;57.568;25.814;2023-03-04T09:22:51;98125.31;;;-2.67;100.00
59650;BME280;46162;57.568;25.814;2023-03-04T09:25:20;98126.81;;;-2.74;100.00
59650;BME280;46162;57.568;25.814;2023-03-04T09:27:53;98123.91;;;-2.71;100.00
59650;BME280;46162;57.568;25.814;2023-03-04T09:30:22;98119.00;;;-2.75;100.00
59650;BME280;46162;57.568;25.814;2023-03-04T09:32:54;98121.97;;;-2.69;100.00
59650;BME280;46162;57.568;25.814;2023-03-04T09:35:25;98117.13;;;-2.64;100.00
59650;BME280;46162;57.568;25.814;2023-03-04T09:37:59;98127.03;;;-2.56;100.00
59650;BME280;46162;57.568;25.814;2023-03-04T09:40:30;98119.28;;;-2.48;100.00
59650;BME280;46162;57.568;25.814;2023-03-04T09:43:05;98125.72;;;-2.41;100.00
59650;BME280;46162;57.568;25.814;2023-03-04T09:45:38;98120.75;;;-2.34;100.00
59650;BME280;46162;57.568;25.814;2023-03-04T09:48:14;98120.34;;;-2.29;100.00
59650;BME280;46162;57.568;25.814;2023-03-04T09:50:50;98119.78;;;-2.23;100.00
59650;BME280;46162;57.568;25.814;2023-03-04T09:53:34;98110.34;;;-2.16;100.00
59650;BME280;46162;57.568;25.814;2023-03-04T09:56:13;98116.22;;;-2.12;100.00
59650;BME280;46162;57.568;25.814;2023-03-04T09:58:55;98109.94;;;-2.21;100.00
59650;BME280;46162;57.568;25.814;2023-03-04T10:01:31;98118.00;;;-2.13;100.00
59650;BME280;46162;57.568;25.814;2023-03-04T10:04:11;98114.38;;;-2.22;100.00
59650;BME280;46162;57.568;25.814;2023-03-04T10:06:41;98114.38;;;-2.22;100.00
59650;BME280;46162;57.568;25.814;2023-03-04T10:09:19;98116.19;;;-2.22;100.00
59650;BME280;46162;57.568;25.814;2023-03-04T10:11:58;98123.25;;;-2.23;100.00
59650;BME280;46162;57.568;25.814;2023-03-04T10:14:39;98126.34;;;-2.27;100.00
59650;BME280;46162;57.568;25.814;2023-03-04T10:17:15;98120.19;;;-2.28;100.00
59650;BME280;46162;57.568;25.814;2023-03-04T10:19:57;98124.78;;;-2.30;100.00
59650;BME280;46162;57.568;25.814;2023-03-04T10:22:32;98128.31;;;-2.20;100.00
59650;BME280;46162;57.568;25.814;2023-03-04T10:25:20;98129.72;;;-2.06;100.00
59650;BME280;46162;57.568;25.814;2023-03-04T10:27:54;98116.09;;;-2.01;100.00
59650;BME280;46162;57.568;25.814;2023-03-04T10:30:37;98124.19;;;-2.03;100.00
59650;BME280;46162;57.568;25.814;2023-03-04T10:33:12;98115.56;;;-2.05;100.00
59650;BME280;46162;57.568;25.814;2023-03-04T10:35:45;98113.59;;;-2.12;100.00
59650;BME280;46162;57.568;25.814;2023-03-04T10:38:19;98112.44;;;-2.20;100.00
59650;BME280;46162;57.568;25.814;2023-03-04T10:40:50;98107.59;;;-2.14;100.00
59650;BME280;46162;57.568;25.814;2023-03-04T10:43:21;98118.63;;;-2.00;100.00
59650;BME280;46162;57.568;25.814;2023-03-04T10:45:58;98114.75;;;-1.76;100.00
59650;BME280;46162;57.568;25.814;2023-03-04T10:48:29;98118.09;;;-1.74;100.00
59650;BME280;46162;57.568;25.814;2023-03-04T10:51:12;98120.88;;;-1.66;100.00
59650;BME280;46162;57.568;25.814;2023-03-04T10:53:49;98120.47;;;-1.52;100.00
59650;BME280;46162;57.568;25.814;2023-03-04T10:56:34;98117.56;;;-1.29;100.00
59650;BME280;46162;57.568;25.814;2023-03-04T10:59:29;98122.00;;;-1.00;100.00
59650;BME280;46162;57.568;25.814;2023-03-04T11:02:01;98113.88;;;-0.89;100.00
59650;BME280;46162;57.568;25.814;2023-03-04T11:04:36;98113.22;;;-0.91;100.00
59650;BME280;46162;57.568;25.814;2023-03-04T11:07:07;98113.78;;;-1.17;100.00
59650;BME280;46162;57.568;25.814;2023-03-04T11:09:37;98109.63;;;-1.29;100.00
59650;BME280;46162;57.568;25.814;2023-03-04T11:12:10;98128.84;;;-1.27;100.00
59650;BME280;46162;57.568;25.814;2023-03-04T11:14:44;98123.97;;;-1.22;100.00
59650;BME280;46162;57.568;25.814;2023-03-04T11:17:27;98123.97;;;-1.22;100.00
59650;BME280;46162;57.568;25.814;2023-03-04T11:20:00;98122.59;;;-1.26;100.00
59650;BME280;46162;57.568;25.814;2023-03-04T11:22:32;98124.25;;;-1.25;100.00
59650;BME280;46162;57.568;25.814;2023-03-04T11:25:06;98124.25;;;-1.25;100.00
59650;BME280;46162;57.568;25.814;2023-03-04T11:27:40;98131.50;;;-1.27;100.00
59650;BME280;46162;57.568;25.814;2023-03-04T11:30:32;98131.50;;;-1.27;100.00
59650;BME280;46162;57.568;25.814;2023-03-04T11:33:11;98133.84;;;-1.24;100.00
59650;BME280;46162;57.568;25.814;2023-03-04T11:35:47;98129.41;;;-1.23;100.00
59650;BME280;46162;57.568;25.814;2023-03-04T11:38:21;98143.78;;;-1.26;100.00
59650;BME280;46162;57.568;25.814;2023-03-04T11:40:53;98138.19;;;-1.23;100.00
59650;BME280;46162;57.568;25.814;2023-03-04T11:43:29;98152.38;;;-1.24;100.00
59650;BME280;46162;57.568;25.814;2023-03-04T11:46:31;98151.84;;;-1.18;100.00
59650;BME280;46162;57.568;25.814;2023-03-04T11:49:18;98149.91;;;-1.16;100.00
59650;BME280;46162;57.568;25.814;2023-03-04T11:51:59;98158.09;;;-1.19;100.00
59650;BME280;46162;57.568;25.814;2023-03-04T11:54:34;98159.09;;;-1.20;100.00
59650;BME280;46162;57.568;25.814;2023-03-04T11:57:17;98157.56;;;-1.32;100.00
59650;BME280;46162;57.568;25.814;2023-03-04T12:00:11;98169.38;;;-1.36;100.00
59650;BME280;46162;57.568;25.814;2023-03-04T12:02:54;98162.97;;;-1.34;100.00
59650;BME280;46162;57.568;25.814;2023-03-04T12:05:42;98164.97;;;-1.16;100.00
59650;BME280;46162;57.568;25.814;2023-03-04T12:08:44;98164.50;;;-1.21;100.00
59650;BME280;46162;57.568;25.814;2023-03-04T12:11:21;98171.34;;;-1.19;100.00
59650;BME280;46162;57.568;25.814;2023-03-04T12:14:01;98170.78;;;-1.03;100.00
59650;BME280;46162;57.568;25.814;2023-03-04T12:17:02;98171.31;;;-0.80;100.00
59650;BME280;46162;57.568;25.814;2023-03-04T12:19:43;98170.56;;;-0.53;100.00
59650;BME280;46162;57.568;25.814;2023-03-04T12:22:27;98172.06;;;-0.40;100.00
59650;BME280;46162;57.568;25.814;2023-03-04T12:25:24;98169.59;;;-0.42;100.00
59650;BME280;46162;57.568;25.814;2023-03-04T12:28:07;98177.09;;;-0.47;100.00
59650;BME280;46162;57.568;25.814;2023-03-04T12:30:54;98176.59;;;-0.60;100.00
59650;BME280;46162;57.568;25.814;2023-03-04T12:33:35;98174.13;;;-0.72;100.00
59650;BME280;46162;57.568;25.814;2023-03-04T12:36:15;98187.63;;;-0.75;100.00
59650;BME280;46162;57.568;25.814;2023-03-04T12:39:12;98184.81;;;-0.63;100.00
59650;BME280;46162;57.568;25.814;2023-03-04T12:41:48;98183.41;;;-0.58;100.00
59650;BME280;46162;57.568;25.814;2023-03-04T12:44:22;98192.34;;;-0.49;100.00
59650;BME280;46162;57.568;25.814;2023-03-04T12:47:06;98172.91;;;-0.50;100.00
59650;BME280;46162;57.568;25.814;2023-03-04T12:49:57;98178.78;;;-0.46;100.00
59650;BME280;46162;57.568;25.814;2023-03-04T12:52:43;98181.28;;;-0.45;100.00
59650;BME280;46162;57.568;25.814;2023-03-04T12:55:21;98195.41;;;-0.44;100.00
59650;BME280;46162;57.568;25.814;2023-03-04T12:57:54;98181.97;;;-0.43;100.00
59650;BME280;46162;57.568;25.814;2023-03-04T13:00:34;98189.53;;;-0.57;100.00
59650;BME280;46162;57.568;25.814;2023-03-04T13:03:11;98203.38;;;-0.54;100.00
59650;BME280;46162;57.568;25.814;2023-03-04T13:05:54;98200.00;;;-0.56;100.00
59650;BME280;46162;57.568;25.814;2023-03-04T13:08:33;98194.44;;;-0.62;100.00
59650;BME280;46162;57.568;25.814;2023-03-04T13:14:23;98202.09;;;-0.59;100.00
59650;BME280;46162;57.568;25.814;2023-03-04T13:16:53;98211.75;;;-0.58;100.00